Time;durP1;ratioP1;P1;durP2;ratioP2;P2;SDS_P1;SDS_P2;PMS_P1;PMS_P2;Temp;Humidity;BMP_temperature;BMP_pressure;BME280_temperature;BME280_humidity;BME280_pressure;Samples;Min_cycle;Max_cycle;Signal;HPM_P1;HPM_P2
2022/11/26 00:01:14;;;;;;;4.47;2.28;;;4.40;99.90;;;;;;5009831;28;20685;-69
2022/11/26 00:03:41;;;;;;;5.95;2.58;;;4.40;99.90;;;;;;5009993;28;20203;-68
2022/11/26 00:06:22;;;;;;;5.10;2.40;;;4.40;99.90;;;;;;5009971;28;20230;-68
2022/11/26 00:08:49;;;;;;;1.80;1.70;;;4.40;99.90;;;;;;5010275;28;20565;-69
2022/11/26 00:11:16;;;;;;;4.22;2.60;;;4.50;99.90;;;;;;5009418;28;20199;-67
2022/11/26 00:13:44;;;;;;;4.85;2.50;;;4.50;99.90;;;;;;5010308;28;20199;-69
2022/11/26 00:16:13;;;;;;;3.08;2.50;;;4.50;99.90;;;;;;5010604;28;20227;-69
2022/11/26 00:18:40;;;;;;;6.70;2.47;;;4.50;99.90;;;;;;5009140;28;20202;-68
2022/11/26 00:21:15;;;;;;;2.88;2.40;;;4.40;99.90;;;;;;5009809;28;20210;-68
2022/11/26 00:23:43;;;;;;;4.85;2.67;;;4.40;99.90;;;;;;5009873;28;20206;-68
2022/11/26 00:26:15;;;;;;;3.40;2.85;;;4.40;99.90;;;;;;5009746;28;20261;-69
2022/11/26 00:28:50;;;;;;;4.40;2.38;;;4.40;99.90;;;;;;5010053;28;20199;-69
2022/11/26 00:31:18;;;;;;;3.85;2.40;;;4.40;99.90;;;;;;5009356;28;20210;-68
2022/11/26 00:33:44;;;;;;;2.65;1.95;;;4.40;99.90;;;;;;5009435;28;20207;-69
2022/11/26 00:36:17;;;;;;;6.38;2.10;;;4.50;99.90;;;;;;5010031;28;20227;-68
2022/11/26 00:38:44;;;;;;;3.08;1.95;;;4.50;99.90;;;;;;5009042;28;20202;-68
2022/11/26 00:41:16;;;;;;;5.20;2.70;;;4.60;99.90;;;;;;5010026;28;20198;-67
2022/11/26 00:43:44;;;;;;;3.97;3.03;;;4.60;99.90;;;;;;5010591;28;20203;-69
2022/11/26 00:46:14;;;;;;;6.15;2.28;;;4.70;99.90;;;;;;5010718;28;20231;-69
2022/11/26 00:48:41;;;;;;;2.25;2.05;;;4.80;99.90;;;;;;5010016;28;20623;-69
2022/11/26 00:51:14;;;;;;;3.15;2.33;;;4.90;99.90;;;;;;5010302;28;20199;-69
2022/11/26 00:53:42;;;;;;;5.13;2.63;;;4.90;99.90;;;;;;5010438;28;20215;-68
2022/11/26 00:56:14;;;;;;;9.68;2.47;;;5.00;99.90;;;;;;5010254;28;20713;-68
2022/11/26 00:58:41;;;;;;;3.33;1.90;;;5.10;99.90;;;;;;5010438;28;20200;-68
2022/11/26 01:01:10;;;;;;;2.92;1.88;;;5.10;99.90;;;;;;5010206;28;20231;-69
2022/11/26 01:03:41;;;;;;;3.78;2.35;;;5.20;99.90;;;;;;5010428;28;20205;-69
2022/11/26 01:06:15;;;;;;;2.88;2.42;;;5.20;99.90;;;;;;5010667;28;20266;-69
2022/11/26 01:08:42;;;;;;;9.95;2.15;;;5.30;99.90;;;;;;5010167;28;20676;-68
2022/11/26 01:11:14;;;;;;;4.15;2.25;;;5.40;99.90;;;;;;5009456;28;20215;-69
2022/11/26 01:13:41;;;;;;;5.90;2.17;;;5.40;99.90;;;;;;5010500;28;20198;-69
2022/11/26 01:16:18;;;;;;;4.45;2.00;;;5.50;99.90;;;;;;5010467;28;20219;-68
2022/11/26 01:18:46;;;;;;;6.53;2.70;;;5.50;99.90;;;;;;5010083;28;20204;-68
2022/11/26 01:21:14;;;;;;;2.80;2.00;;;5.50;99.90;;;;;;5009986;28;20584;-68
2022/11/26 01:23:41;;;;;;;3.20;2.42;;;5.50;99.90;;;;;;5010170;28;20719;-69
2022/11/26 01:26:14;;;;;;;3.53;1.70;;;5.50;99.90;;;;;;5010377;28;20248;-69
2022/11/26 01:28:41;;;;;;;3.17;1.85;;;5.60;99.90;;;;;;5010106;28;20202;-69
2022/11/26 01:31:14;;;;;;;13.13;3.00;;;5.60;99.90;;;;;;5009716;28;20210;-68
2022/11/26 01:33:41;;;;;;;5.82;2.10;;;5.60;99.90;;;;;;5086965;22;20213;-68
2022/11/26 01:36:20;;;;;;;4.70;2.13;;;5.70;99.90;;;;;;5031612;28;20238;-68
2022/11/26 01:38:47;;;;;;;3.17;1.85;;;5.70;99.90;;;;;;5032433;28;20229;-69
2022/11/26 01:41:24;;;;;;;6.72;2.20;;;5.70;99.90;;;;;;5031255;28;20206;-70
2022/11/26 01:43:52;;;;;;;2.92;1.55;;;5.70;99.90;;;;;;5031737;28;20210;-70
2022/11/26 01:46:21;;;;;;;7.95;2.08;;;5.70;99.90;;;;;;5031857;28;20230;-70
2022/11/26 01:48:50;;;;;;;5.35;2.28;;;5.70;99.90;;;;;;5031823;28;20479;-68
2022/11/26 01:51:20;;;;;;;2.28;1.90;;;5.70;99.90;;;;;;5031911;28;20208;-68
2022/11/26 01:53:49;;;;;;;3.30;1.70;;;5.80;99.90;;;;;;5032177;28;20229;-67
2022/11/26 01:56:22;;;;;;;5.63;2.15;;;5.80;99.90;;;;;;5032626;28;20206;-68
2022/11/26 01:58:53;;;;;;;5.50;1.85;;;5.80;99.90;;;;;;5031891;28;20357;-68
2022/11/26 02:01:20;;;;;;;4.70;2.30;;;5.80;99.90;;;;;;5031675;28;20203;-68
2022/11/26 02:03:58;;;;;;;2.58;1.92;;;5.70;99.90;;;;;;5030152;28;20825;-68
2022/11/26 02:06:32;;;;;;;5.32;2.42;;;5.70;99.90;;;;;;5032672;28;20225;-68
2022/11/26 02:09:00;;;;;;;3.50;2.30;;;5.70;99.90;;;;;;5032311;28;20201;-68
2022/11/26 02:11:27;;;;;;;4.20;1.98;;;5.60;99.90;;;;;;5031831;28;20199;-68
2022/11/26 02:13:57;;;;;;;2.17;1.98;;;5.60;99.90;;;;;;5031039;28;20207;-70
2022/11/26 02:16:50;;;;;;;4.25;2.03;;;5.50;99.90;;;;;;5032855;28;20646;-70
2022/11/26 02:19:40;;;;;;;2.28;2.00;;;5.40;99.90;;;;;;5033418;28;20646;-67
2022/11/26 02:22:24;;;;;;;3.72;1.70;;;5.40;99.90;;;;;;5032035;28;20222;-68
2022/11/26 02:24:58;;;;;;;7.00;2.53;;;5.30;99.90;;;;;;5035583;28;20222;-68
2022/11/26 02:28:01;;;;;;;3.75;2.00;;;5.30;99.90;;;;;;5035247;28;20221;-68
2022/11/26 02:30:33;;;;;;;2.60;1.80;;;5.30;99.90;;;;;;5034849;28;20225;-68
2022/11/26 02:33:04;;;;;;;4.20;2.58;;;5.30;99.90;;;;;;5035367;28;20654;-68
2022/11/26 02:35:36;;;;;;;2.60;2.13;;;5.20;99.90;;;;;;5035484;28;20230;-68
2022/11/26 02:38:06;;;;;;;2.25;2.03;;;5.10;99.90;;;;;;5035974;28;20199;-69
2022/11/26 02:40:33;;;;;;;2.67;2.40;;;5.10;99.90;;;;;;5035126;28;20225;-68
2022/11/26 02:43:00;;;;;;;3.05;2.15;;;5.00;99.90;;;;;;5035600;28;20221;-67
2022/11/26 02:45:32;;;;;;;4.50;1.98;;;5.00;99.90;;;;;;5034767;28;20599;-69
2022/11/26 02:48:01;;;;;;;4.68;2.65;;;4.90;99.90;;;;;;5035578;28;20230;-70
2022/11/26 02:50:34;;;;;;;3.65;1.85;;;4.90;99.90;;;;;;5033996;28;20884;-70
2022/11/26 02:53:03;;;;;;;3.78;2.30;;;4.90;99.90;;;;;;5033728;28;20203;-69
2022/11/26 02:55:34;;;;;;;1.98;1.85;;;4.90;99.90;;;;;;5033839;28;20222;-69
2022/11/26 02:58:02;;;;;;;2.95;2.08;;;4.90;99.90;;;;;;5034023;28;20206;-70
2022/11/26 03:00:32;;;;;;;7.35;3.15;;;4.90;99.90;;;;;;5033796;28;20206;-69
2022/11/26 03:03:03;;;;;;;2.15;1.70;;;5.00;99.90;;;;;;5032564;28;20210;-68
2022/11/26 03:05:34;;;;;;;3.88;2.50;;;5.00;99.90;;;;;;5033336;28;20226;-69
2022/11/26 03:08:02;;;;;;;2.97;2.13;;;5.00;99.90;;;;;;5033345;28;20605;-70
2022/11/26 03:10:31;;;;;;;3.55;1.92;;;5.00;99.90;;;;;;5032237;28;20202;-69
2022/11/26 03:12:58;;;;;;;2.08;1.73;;;5.10;99.90;;;;;;5033287;28;20700;-68
2022/11/26 03:15:25;;;;;;;7.57;2.60;;;5.10;99.90;;;;;;5033071;28;20601;-70
2022/11/26 03:17:53;;;;;;;2.88;2.10;;;5.10;99.90;;;;;;5033571;28;20289;-69
2022/11/26 03:20:20;;;;;;;9.40;2.20;;;5.10;99.90;;;;;;5032476;28;20211;-70
2022/11/26 03:22:47;;;;;;;2.60;1.83;;;5.10;99.90;;;;;;5032959;28;20690;-69
2022/11/26 03:25:14;;;;;;;4.20;2.13;;;5.10;99.90;;;;;;5032733;28;20222;-70
2022/11/26 03:27:41;;;;;;;3.67;2.15;;;5.10;99.90;;;;;;5032343;28;20233;-69
2022/11/26 03:30:08;;;;;;;5.35;2.10;;;5.10;99.90;;;;;;5033216;28;20585;-70
2022/11/26 03:32:35;;;;;;;3.05;2.25;;;5.10;99.90;;;;;;5032340;28;20209;-69
2022/11/26 03:35:04;;;;;;;2.05;1.85;;;5.10;99.90;;;;;;5033091;28;20230;-69
2022/11/26 03:37:31;;;;;;;2.90;2.00;;;5.10;99.90;;;;;;5032749;28;20222;-69
2022/11/26 03:39:57;;;;;;;1.95;1.75;;;5.10;99.90;;;;;;5033134;28;20209;-69
2022/11/26 03:42:24;;;;;;;3.40;2.13;;;5.10;99.90;;;;;;5033545;28;20220;-69
2022/11/26 03:44:51;;;;;;;3.65;2.25;;;5.00;99.90;;;;;;5034220;28;20226;-69
2022/11/26 03:47:18;;;;;;;3.60;2.63;;;5.00;99.90;;;;;;5034528;28;20227;-69
2022/11/26 03:49:44;;;;;;;2.33;2.00;;;4.90;99.90;;;;;;5033789;28;20206;-70
2022/11/26 03:52:12;;;;;;;2.00;1.40;;;4.90;99.90;;;;;;5033556;28;20203;-69
2022/11/26 03:54:39;;;;;;;12.95;2.17;;;4.80;99.90;;;;;;5033959;28;20231;-69
2022/11/26 03:57:06;;;;;;;3.90;2.20;;;4.80;99.90;;;;;;5033804;28;20218;-70
2022/11/26 03:59:33;;;;;;;6.68;2.55;;;4.70;99.90;;;;;;5031424;28;20211;-70
2022/11/26 04:01:59;;;;;;;2.63;2.05;;;4.70;99.90;;;;;;5033324;28;20198;-70
2022/11/26 04:04:26;;;;;;;2.88;2.55;;;4.60;99.90;;;;;;5033293;28;20785;-70
2022/11/26 04:06:53;;;;;;;1.92;1.65;;;4.50;99.90;;;;;;5033425;28;20200;-68
2022/11/26 04:09:21;;;;;;;2.60;1.98;;;4.50;99.90;;;;;;5033270;28;20222;-70
2022/11/26 04:11:48;;;;;;;4.00;2.00;;;4.40;99.90;;;;;;5032328;28;20562;-69
2022/11/26 04:14:15;;;;;;;5.45;2.45;;;4.40;99.90;;;;;;5032630;28;20230;-69
2022/11/26 04:16:41;;;;;;;1.85;1.73;;;4.30;99.90;;;;;;5032879;28;20603;-70
2022/11/26 04:19:08;;;;;;;5.78;2.20;;;4.30;99.90;;;;;;5032966;28;20198;-69
2022/11/26 04:21:35;;;;;;;3.55;1.98;;;4.20;99.90;;;;;;5032377;28;20198;-69
2022/11/26 04:24:01;;;;;;;2.20;1.80;;;4.20;99.90;;;;;;5033098;28;20205;-69
2022/11/26 04:26:29;;;;;;;2.15;1.95;;;4.10;99.90;;;;;;5032142;28;20222;-68
2022/11/26 04:28:56;;;;;;;7.57;1.73;;;4.00;99.90;;;;;;5032702;28;20237;-69
2022/11/26 04:31:23;;;;;;;1.70;1.40;;;4.00;99.90;;;;;;5031746;28;20202;-69
2022/11/26 04:33:50;;;;;;;2.78;1.90;;;3.90;99.90;;;;;;5032378;28;20218;-70
2022/11/26 04:36:16;;;;;;;3.97;2.10;;;3.90;99.90;;;;;;5031982;28;20694;-70
2022/11/26 04:38:43;;;;;;;2.50;2.10;;;3.80;99.90;;;;;;5032516;28;20198;-68
2022/11/26 04:41:10;;;;;;;3.97;1.95;;;3.80;99.90;;;;;;5031544;28;20199;-69
2022/11/26 04:43:38;;;;;;;1.75;1.60;;;3.80;99.90;;;;;;5031799;28;20206;-70
2022/11/26 04:46:05;;;;;;;4.25;2.10;;;3.70;99.90;;;;;;5031357;28;20226;-70
2022/11/26 04:48:32;;;;;;;1.85;1.42;;;3.70;99.90;;;;;;5032643;28;20229;-69
2022/11/26 04:50:58;;;;;;;2.95;1.70;;;3.70;99.90;;;;;;5032146;28;20202;-69
2022/11/26 04:53:25;;;;;;;2.20;1.60;;;3.60;99.90;;;;;;5033588;28;20205;-70
2022/11/26 04:55:52;;;;;;;2.78;1.95;;;3.60;99.90;;;;;;5033838;28;20233;-68
2022/11/26 04:58:20;;;;;;;3.58;1.75;;;3.50;99.90;;;;;;5033521;28;20209;-70
2022/11/26 05:00:49;;;;;;;4.90;1.95;;;3.50;99.90;;;;;;5032849;28;20217;-70
2022/11/26 05:03:16;;;;;;;1.73;1.63;;;3.40;99.90;;;;;;5033128;28;20203;-69
2022/11/26 05:05:42;;;;;;;4.10;2.20;;;3.30;99.90;;;;;;5032746;28;20301;-70
2022/11/26 05:08:09;;;;;;;3.17;2.10;;;3.20;99.90;;;;;;5032847;28;20237;-70
2022/11/26 05:10:36;;;;;;;4.75;2.50;;;3.20;99.90;;;;;;5032293;28;20214;-70
2022/11/26 05:13:03;;;;;;;3.55;2.42;;;3.10;99.90;;;;;;5032935;28;20199;-70
2022/11/26 05:15:29;;;;;;;2.13;1.85;;;3.10;99.90;;;;;;5032756;28;20603;-68
2022/11/26 05:17:57;;;;;;;2.20;2.00;;;3.10;99.90;;;;;;5033020;28;20206;-69
2022/11/26 05:20:24;;;;;;;3.45;2.30;;;3.00;99.90;;;;;;5032225;28;20202;-70
2022/11/26 05:22:51;;;;;;;2.75;2.40;;;3.00;99.90;;;;;;5033135;28;20202;-70
2022/11/26 05:25:18;;;;;;;3.38;2.35;;;2.90;99.90;;;;;;5032531;28;20237;-70
2022/11/26 05:27:44;;;;;;;5.65;2.30;;;2.90;99.90;;;;;;5032565;28;20225;-69
2022/11/26 05:30:12;;;;;;;3.45;2.20;;;2.90;99.90;;;;;;5032310;28;20206;-70
2022/11/26 05:32:39;;;;;;;2.97;2.38;;;2.90;99.90;;;;;;5031859;28;20569;-69
2022/11/26 05:35:08;;;;;;;2.30;2.10;;;3.00;99.90;;;;;;5032354;28;20241;-69
2022/11/26 05:37:34;;;;;;;2.80;2.50;;;3.10;99.90;;;;;;5031995;28;20210;-70
2022/11/26 05:40:01;;;;;;;4.60;2.30;;;3.10;99.90;;;;;;5032212;28;20206;-69
2022/11/26 05:42:28;;;;;;;3.17;2.30;;;3.10;99.90;;;;;;5031701;28;20231;-70
2022/11/26 05:44:55;;;;;;;3.95;2.50;;;3.20;99.90;;;;;;5032041;28;20218;-70
2022/11/26 05:47:21;;;;;;;2.25;1.92;;;3.20;99.90;;;;;;5032310;28;20226;-69
2022/11/26 05:49:48;;;;;;;1.98;1.77;;;3.10;99.90;;;;;;5031713;28;20257;-70
2022/11/26 05:52:16;;;;;;;4.03;2.13;;;3.00;99.90;;;;;;5031606;28;20567;-70
2022/11/26 05:54:43;;;;;;;3.47;2.10;;;3.00;99.90;;;;;;5032204;28;20229;-70
2022/11/26 05:57:10;;;;;;;5.45;2.35;;;2.90;99.90;;;;;;5033451;28;20350;-69
2022/11/26 05:59:37;;;;;;;5.30;2.45;;;2.80;99.90;;;;;;5036182;28;20199;-70
2022/11/26 06:02:03;;;;;;;2.92;2.20;;;2.70;99.90;;;;;;5036298;28;20209;-70
2022/11/26 06:04:30;;;;;;;2.70;1.75;;;2.70;99.90;;;;;;5036450;28;20949;-70
2022/11/26 06:06:57;;;;;;;2.97;2.25;;;2.60;99.90;;;;;;5036214;28;20202;-70
2022/11/26 06:09:25;;;;;;;2.00;1.40;;;2.60;99.90;;;;;;5035246;28;20230;-70
2022/11/26 06:11:52;;;;;;;3.75;2.78;;;2.60;99.90;;;;;;5035518;28;20700;-70
2022/11/26 06:14:19;;;;;;;1.70;1.60;;;2.60;99.90;;;;;;5035427;28;20317;-70
2022/11/26 06:16:46;;;;;;;4.15;2.42;;;2.60;99.90;;;;;;5035321;28;20223;-69
2022/11/26 06:19:13;;;;;;;4.13;2.30;;;2.50;99.90;;;;;;5034670;28;20218;-70
2022/11/26 06:21:39;;;;;;;5.80;2.22;;;2.50;99.90;;;;;;5035045;28;20194;-70
2022/11/26 06:24:06;;;;;;;2.55;2.10;;;2.50;99.90;;;;;;5035503;28;20195;-69
2022/11/26 06:26:35;;;;;;;3.50;2.85;;;2.40;99.90;;;;;;5033717;28;20202;-70
2022/11/26 06:29:01;;;;;;;3.35;2.13;;;2.40;99.90;;;;;;5035456;28;20215;-69
2022/11/26 06:31:28;;;;;;;2.45;2.22;;;2.40;99.90;;;;;;5033183;28;20206;-67
2022/11/26 06:33:56;;;;;;;4.25;2.47;;;2.30;99.90;;;;;;5033331;28;20210;-68
2022/11/26 06:36:23;;;;;;;3.50;2.72;;;2.30;99.90;;;;;;5032848;28;20206;-69
2022/11/26 06:38:49;;;;;;;4.22;2.15;;;2.30;99.90;;;;;;5033634;28;20195;-68
2022/11/26 06:41:16;;;;;;;3.70;2.10;;;2.30;99.90;;;;;;5034443;28;20578;-69
2022/11/26 06:43:44;;;;;;;4.20;2.50;;;2.20;99.90;;;;;;5034262;28;20198;-67
2022/11/26 06:46:12;;;;;;;3.50;2.30;;;2.30;99.90;;;;;;5034684;28;20218;-67
2022/11/26 06:48:39;;;;;;;3.00;2.70;;;2.20;99.90;;;;;;5032943;28;20230;-68
2022/11/26 06:51:08;;;;;;;4.15;2.30;;;2.20;99.90;;;;;;5033100;28;20214;-68
2022/11/26 06:53:35;;;;;;;6.95;3.05;;;2.20;99.90;;;;;;5031923;28;20464;-67
2022/11/26 06:56:02;;;;;;;3.75;2.85;;;2.10;99.90;;;;;;5032557;28;20228;-68
2022/11/26 06:58:29;;;;;;;2.85;2.30;;;2.10;99.90;;;;;;5032410;28;20194;-68
2022/11/26 07:00:57;;;;;;;3.20;2.58;;;2.10;99.90;;;;;;5031794;28;20202;-67
2022/11/26 07:03:25;;;;;;;2.65;2.40;;;2.00;99.90;;;;;;5032517;28;20210;-68
2022/11/26 07:05:52;;;;;;;3.55;2.65;;;2.00;99.90;;;;;;5032435;28;20230;-68
2022/11/26 07:08:18;;;;;;;3.63;1.83;;;2.10;99.90;;;;;;5031841;28;20226;-68
2022/11/26 07:10:45;;;;;;;2.15;1.83;;;2.00;99.90;;;;;;5031859;28;20202;-69
2022/11/26 07:13:12;;;;;;;2.50;1.80;;;2.00;99.90;;;;;;5032555;28;20606;-69
2022/11/26 07:15:38;;;;;;;5.70;3.15;;;2.00;99.90;;;;;;5032064;28;20241;-69
2022/11/26 07:18:07;;;;;;;3.22;2.20;;;2.00;99.90;;;;;;5032560;28;20202;-68
2022/11/26 07:20:36;;;;;;;7.18;2.65;;;2.10;99.90;;;;;;5031709;28;20206;-69
2022/11/26 07:23:03;;;;;;;2.85;1.63;;;2.10;99.90;;;;;;5032289;28;20198;-70
2022/11/26 07:25:30;;;;;;;4.88;2.25;;;2.10;99.90;;;;;;5032113;28;20226;-69
2022/11/26 07:27:57;;;;;;;5.30;2.20;;;2.20;99.90;;;;;;5032158;28;20591;-69
2022/11/26 07:30:25;;;;;;;5.15;2.70;;;2.20;99.90;;;;;;5031516;28;20301;-70
2022/11/26 07:32:51;;;;;;;2.70;2.40;;;2.30;99.90;;;;;;5032163;28;20203;-69
2022/11/26 07:35:19;;;;;;;2.50;2.00;;;2.30;99.90;;;;;;5046480;22;20728;-66
2022/11/26 07:37:46;;;;;;;5.03;2.30;;;2.40;99.90;;;;;;5012130;28;20874;-66
2022/11/26 07:40:14;;;;;;;2.25;2.03;;;2.50;99.90;;;;;;5011471;28;20206;-64
2022/11/26 07:42:40;;;;;;;2.72;2.30;;;2.60;99.90;;;;;;5012034;28;20695;-68
2022/11/26 07:45:08;;;;;;;4.20;2.60;;;2.70;99.90;;;;;;5011677;28;20223;-64
2022/11/26 07:47:35;;;;;;;3.40;2.33;;;2.80;99.90;;;;;;5011954;28;20667;-66
2022/11/26 07:50:01;;;;;;;3.17;2.75;;;2.90;99.90;;;;;;5011745;28;20237;-65
2022/11/26 07:52:29;;;;;;;2.45;2.25;;;3.10;99.90;;;;;;5011295;28;20203;-66
2022/11/26 07:54:56;;;;;;;6.15;2.65;;;3.30;99.90;;;;;;5012036;28;20223;-66
2022/11/26 07:57:24;;;;;;;3.55;2.97;;;3.60;99.90;;;;;;5011649;28;20203;-66
2022/11/26 07:59:50;;;;;;;2.20;2.00;;;3.80;99.90;;;;;;5011842;28;20196;-66
2022/11/26 08:02:18;;;;;;;4.85;3.50;;;3.90;99.90;;;;;;5011018;28;20203;-66
2022/11/26 08:04:44;;;;;;;3.63;2.05;;;4.00;99.90;;;;;;5011746;28;20690;-65
2022/11/26 08:07:11;;;;;;;3.17;2.85;;;3.90;99.90;;;;;;5016153;28;20194;-66
2022/11/26 08:09:39;;;;;;;3.88;2.38;;;3.90;99.90;;;;;;5029582;28;20305;-66
2022/11/26 08:12:06;;;;;;;2.95;2.20;;;3.90;99.90;;;;;;5030292;28;20202;-66
2022/11/26 08:14:33;;;;;;;3.83;2.33;;;3.80;99.90;;;;;;5030214;28;20232;-65
2022/11/26 08:17:00;;;;;;;2.78;2.10;;;3.80;99.90;;;;;;5031052;28;20205;-66
2022/11/26 08:19:27;;;;;;;2.85;2.55;;;3.80;99.90;;;;;;5030276;28;20204;-66
2022/11/26 08:21:54;;;;;;;2.88;2.47;;;3.80;99.90;;;;;;5029675;28;20213;-65
2022/11/26 08:24:22;;;;;;;2.70;2.50;;;3.80;99.90;;;;;;5030641;28;20226;-66
2022/11/26 08:26:50;;;;;;;2.22;2.03;;;3.90;99.90;;;;;;5030341;28;20723;-66
2022/11/26 08:29:17;;;;;;;3.42;2.50;;;3.90;99.90;;;;;;5030055;28;20293;-66
2022/11/26 08:31:44;;;;;;;3.65;2.40;;;4.00;99.90;;;;;;5030328;28;20209;-64
2022/11/26 08:34:13;;;;;;;3.80;2.53;;;4.10;99.90;;;;;;5030320;28;20232;-66
2022/11/26 08:36:40;;;;;;;3.63;2.75;;;4.10;99.90;;;;;;5030526;28;20876;-65
2022/11/26 08:39:07;;;;;;;3.75;3.13;;;4.20;99.90;;;;;;5029883;28;20198;-66
2022/11/26 08:41:34;;;;;;;2.90;2.70;;;4.30;99.90;;;;;;5030247;28;20588;-66
2022/11/26 08:44:02;;;;;;;3.10;2.90;;;4.40;99.90;;;;;;5021944;28;20299;-65
2022/11/26 08:46:29;;;;;;;3.22;2.70;;;4.50;99.90;;;;;;4994076;28;20204;-66
2022/11/26 08:48:56;;;;;;;5.32;2.95;;;4.70;99.90;;;;;;4990970;28;20216;-66
2022/11/26 08:51:23;;;;;;;3.45;3.15;;;4.90;99.90;;;;;;4989649;28;20212;-66
2022/11/26 08:53:50;;;;;;;3.17;2.88;;;5.10;99.90;;;;;;4991033;28;20223;-66
2022/11/26 08:56:17;;;;;;;3.20;2.70;;;5.30;99.90;;;;;;4990786;28;20204;-66
2022/11/26 08:58:45;;;;;;;3.15;2.63;;;5.50;99.90;;;;;;4990849;28;20210;-66
2022/11/26 09:01:15;;;;;;;4.05;2.85;;;5.60;99.90;;;;;;4990151;28;20210;-66
2022/11/26 09:03:42;;;;;;;3.90;3.10;;;6.30;99.90;;;;;;4990674;28;20251;-65
2022/11/26 09:06:10;;;;;;;2.85;2.65;;;8.00;99.90;;;;;;4990767;28;20235;-66
2022/11/26 09:09:11;;;;;;;3.28;2.97;;;10.50;99.90;;;;;;4990821;28;20242;-66
2022/11/26 09:11:26;;;;;;;3.63;3.00;;;13.00;99.90;;;;;;4990272;28;20235;-67
2022/11/26 09:13:53;;;;;;;2.97;2.67;;;15.40;99.90;;;;;;4990536;28;20575;-66
2022/11/26 09:16:21;;;;;;;3.57;2.60;;;17.20;99.90;;;;;;4990103;28;20226;-66
2022/11/26 09:18:48;;;;;;;4.00;3.30;;;19.00;99.90;;;;;;4991010;28;20481;-67
2022/11/26 09:21:15;;;;;;;3.63;2.67;;;20.30;99.90;;;;;;4989929;28;20462;-68
2022/11/26 09:23:42;;;;;;;3.20;2.90;;;20.90;99.90;;;;;;4990719;28;20473;-68
2022/11/26 09:26:09;;;;;;;5.53;2.80;;;21.00;99.50;;;;;;4990694;28;20491;-68
2022/11/26 09:28:36;;;;;;;5.77;2.70;;;20.40;99.20;;;;;;5007884;28;20827;-68
2022/11/26 09:31:02;;;;;;;2.90;2.40;;;19.70;99.70;;;;;;5009208;28;20495;-68
2022/11/26 09:33:31;;;;;;;2.77;2.57;;;19.60;99.90;;;;;;5013356;28;20461;-68
2022/11/26 09:36:04;;;;;;;3.70;2.93;;;20.30;99.90;;;;;;5012760;28;20556;-68
2022/11/26 09:38:31;;;;;;;3.77;3.07;;;20.70;98.70;;;;;;5013022;28;20461;-68
2022/11/26 09:41:14;;;;;;;4.27;3.40;;;20.40;99.20;;;;;;5012653;28;20991;-68
2022/11/26 09:44:00;;;;;;;3.93;3.50;;;19.20;99.90;;;;;;5013055;28;20458;-68
2022/11/26 09:46:32;;;;;;;3.80;3.30;;;18.50;99.90;;;;;;5013037;28;20471;-68
2022/11/26 09:49:02;;;;;;;4.60;3.43;;;18.20;99.90;;;;;;5013073;28;20485;-68
2022/11/26 09:51:30;;;;;;;5.43;4.00;;;18.90;99.90;;;;;;5011875;28;20873;-68
2022/11/26 09:53:57;;;;;;;3.60;3.17;;;20.30;99.90;;;;;;5013042;28;20496;-68
2022/11/26 09:56:26;;;;;;;3.27;2.97;;;21.50;99.60;;;;;;5012890;28;20481;-68
2022/11/26 09:59:00;;;;;;;6.63;3.20;;;22.90;98.30;;;;;;5012576;28;20458;-68
2022/11/26 10:01:28;;;;;;;3.33;2.87;;;23.90;97.20;;;;;;5012464;28;20877;-68
2022/11/26 10:03:55;;;;;;;3.07;2.70;;;24.70;96.40;;;;;;5012791;28;20466;-69
2022/11/26 10:06:32;;;;;;;5.00;3.23;;;25.60;95.30;;;;;;5012578;28;20467;-69
2022/11/26 10:09:29;;;;;;;3.30;2.77;;;26.10;93.50;;;;;;5012579;28;20546;-69
2022/11/26 10:12:03;;;;;;;4.07;3.00;;;26.10;93.30;;;;;;5012725;28;20894;-69
2022/11/26 10:14:40;;;;;;;3.60;2.50;;;26.20;93.60;;;;;;5012048;28;21068;-68
2022/11/26 10:17:20;;;;;;;7.20;3.83;;;26.50;92.60;;;;;;5014003;28;20912;-68
2022/11/26 10:20:01;;;;;;;3.43;3.00;;;26.90;92.00;;;;;;5013318;28;20445;-68
2022/11/26 10:22:33;;;;;;;3.40;3.10;;;27.20;92.10;;;;;;5011677;28;20463;-69
2022/11/26 10:25:01;;;;;;;2.90;2.70;;;27.30;91.10;;;;;;5013810;28;20474;-68
2022/11/26 10:27:32;;;;;;;3.80;2.73;;;27.50;90.20;;;;;;5012972;28;20481;-69
2022/11/26 10:30:02;;;;;;;4.43;3.03;;;26.80;90.30;;;;;;5013764;28;20486;-68
2022/11/26 10:32:36;;;;;;;3.87;2.70;;;26.50;91.10;;;;;;5009577;28;20465;-68
2022/11/26 10:35:04;;;;;;;4.83;3.40;;;27.30;90.40;;;;;;5011441;28;20486;-69
2022/11/26 10:37:32;;;;;;;3.37;2.70;;;28.20;89.30;;;;;;5013137;28;20462;-70
2022/11/26 10:40:15;;;;;;;4.10;2.90;;;28.30;89.10;;;;;;5012870;28;20458;-69
2022/11/26 10:42:44;;;;;;;5.00;3.07;;;28.50;89.00;;;;;;5012653;28;20641;-69
2022/11/26 10:45:18;;;;;;;4.30;2.90;;;29.30;87.50;;;;;;5012391;28;20477;-67
2022/11/26 10:47:45;;;;;;;5.77;2.80;;;28.60;86.10;;;;;;5012398;28;20461;-68
2022/11/26 10:50:21;;;;;;;5.30;3.13;;;27.40;86.90;;;;;;5012610;28;20860;-67
2022/11/26 10:52:51;;;;;;;5.23;2.70;;;26.70;89.10;;;;;;5013203;28;20458;-68
2022/11/26 10:55:26;;;;;;;3.83;2.90;;;27.30;87.10;;;;;;5012386;28;20567;-68
2022/11/26 10:57:57;;;;;;;5.53;3.00;;;26.40;88.80;;;;;;5012871;28;20857;-67
2022/11/26 11:00:30;;;;;;;3.83;2.60;;;24.20;90.40;;;;;;5012138;28;20966;-67
2022/11/26 11:02:59;;;;;;;4.23;3.20;;;21.40;92.10;;;;;;5011964;28;20469;-67
2022/11/26 11:05:26;;;;;;;5.60;2.73;;;19.10;94.10;;;;;;5012107;28;20485;-68
2022/11/26 11:07:54;;;;;;;3.20;2.63;;;17.40;96.20;;;;;;5012789;28;20465;-66
2022/11/26 11:10:23;;;;;;;3.00;2.50;;;16.10;96.70;;;;;;5009390;28;20489;-67
2022/11/26 11:13:00;;;;;;;6.83;3.33;;;14.70;98.20;;;;;;5012218;28;20466;-67
2022/11/26 11:15:29;;;;;;;4.03;2.57;;;13.90;99.90;;;;;;5011789;28;20485;-67
2022/11/26 11:17:59;;;;;;;4.47;2.60;;;12.90;99.90;;;;;;5012291;28;20462;-67
2022/11/26 11:20:34;;;;;;;2.60;2.40;;;12.30;99.90;;;;;;5011538;28;20466;-67
2022/11/26 11:23:18;;;;;;;4.53;2.40;;;11.70;99.90;;;;;;5011655;28;20472;-67
2022/11/26 11:25:56;;;;;;;3.20;2.60;;;11.40;99.90;;;;;;5012603;28;20481;-67
2022/11/26 11:28:26;;;;;;;4.18;2.72;;;11.30;99.90;;;;;;5016151;28;20457;-67
2022/11/26 11:31:01;;;;;;;4.38;2.90;;;11.30;99.90;;;;;;5016168;28;20281;-67
2022/11/26 11:33:29;;;;;;;6.93;3.20;;;12.00;99.90;;;;;;4997316;28;20203;-67
2022/11/26 11:36:02;;;;;;;2.90;2.60;;;13.10;99.90;;;;;;5011641;28;20478;-68
2022/11/26 11:38:32;;;;;;;4.13;2.90;;;14.50;99.90;;;;;;5012158;28;21003;-67
2022/11/26 11:41:02;;;;;;;5.53;2.93;;;15.90;99.90;;;;;;5011661;28;20470;-68
2022/11/26 11:43:34;;;;;;;9.30;3.00;;;16.90;99.90;;;;;;5011973;28;20539;-68
2022/11/26 11:46:13;;;;;;;3.70;3.03;;;18.00;99.70;;;;;;5011518;28;20485;-68
2022/11/26 11:48:51;;;;;;;4.00;2.60;;;19.10;98.10;;;;;;5011840;28;20552;-67
2022/11/26 11:51:29;;;;;;;6.20;2.00;;;19.60;96.90;;;;;;5011262;28;20486;-68
2022/11/26 11:54:04;;;;;;;3.03;2.33;;;19.30;96.10;;;;;;4998464;28;20466;-67
2022/11/26 11:56:36;;;;;;;4.27;2.50;;;18.20;96.90;;;;;;4991830;28;20458;-67
2022/11/26 11:59:16;;;;;;;6.07;2.23;;;17.20;97.80;;;;;;4994635;28;20455;-67
2022/11/26 12:01:59;;;;;;;2.83;2.20;;;16.10;98.60;;;;;;4994028;28;20458;-68
2022/11/26 12:04:47;;;;;;;3.20;2.17;;;15.50;99.90;;;;;;4990947;28;20565;-67
2022/11/26 12:07:34;;;;;;;4.43;2.73;;;15.70;99.90;;;;;;4991690;28;20459;-67
2022/11/26 12:10:11;;;;;;;3.00;2.37;;;16.00;99.50;;;;;;4991109;28;20492;-68
2022/11/26 12:12:41;;;;;;;2.17;1.97;;;16.40;99.60;;;;;;5003943;28;20462;-68
2022/11/26 12:15:14;;;;;;;3.10;2.40;;;16.50;99.70;;;;;;5010905;28;21010;-68
2022/11/26 12:17:47;;;;;;;3.00;2.00;;;16.60;99.20;;;;;;5011079;28;20462;-68
2022/11/26 12:20:21;;;;;;;5.10;2.70;;;16.60;99.20;;;;;;5010871;28;20458;-69
2022/11/26 12:22:56;;;;;;;5.43;2.50;;;16.70;98.80;;;;;;5010903;28;20464;-68
2022/11/26 12:25:30;;;;;;;3.90;2.23;;;16.80;99.00;;;;;;5010164;28;20927;-68
2022/11/26 12:28:02;;;;;;;2.50;1.83;;;17.00;99.00;;;;;;5010873;28;20454;-69
2022/11/26 12:30:37;;;;;;;6.07;2.33;;;17.30;98.20;;;;;;5010234;28;20572;-69
2022/11/26 12:33:10;;;;;;;3.10;1.50;;;17.30;98.30;;;;;;5011074;28;20461;-70
2022/11/26 12:35:41;;;;;;;5.07;2.27;;;16.80;98.00;;;;;;5010862;28;20490;-69
2022/11/26 12:38:16;;;;;;;5.53;2.37;;;16.50;98.30;;;;;;5010117;28;20462;-68
2022/11/26 12:40:49;;;;;;;3.20;2.20;;;15.90;98.60;;;;;;5007874;28;20466;-68
2022/11/26 12:43:20;;;;;;;5.07;2.40;;;15.80;99.00;;;;;;5010491;28;20462;-68
2022/11/26 12:45:53;;;;;;;2.90;2.47;;;15.60;99.90;;;;;;5010356;28;20532;-69
2022/11/26 12:48:33;;;;;;;3.30;2.07;;;15.50;99.60;;;;;;5010470;28;20480;-68
2022/11/26 12:51:09;;;;;;;6.83;2.50;;;15.20;99.90;;;;;;5009974;28;20498;-68
2022/11/26 12:53:43;;;;;;;3.10;2.10;;;14.90;99.90;;;;;;5010342;28;20958;-68
2022/11/26 12:56:18;;;;;;;4.60;2.87;;;14.70;99.90;;;;;;5006566;28;20984;-68
2022/11/26 12:58:53;;;;;;;4.90;4.27;;;14.50;99.90;;;;;;5010244;28;20458;-68
2022/11/26 13:01:22;;;;;;;3.40;2.60;;;14.30;99.90;;;;;;5009947;28;20461;-69
2022/11/26 13:03:50;;;;;;;2.90;2.20;;;14.10;99.90;;;;;;5009605;28;20468;-68
2022/11/26 13:06:30;;;;;;;2.17;1.90;;;14.00;99.90;;;;;;5010428;28;20466;-68